Cotile, Louisiana
Current Conditions -  °F | °C
As of 1:25 PM on Saturday 20 Dec 2014 (Local Time) from KAEX Reporting Station
Scattered Clouds Scattered Clouds  
Wind Chill: 52°   Ceiling: Unl
Heat Index: 52°   Visibility: 10mi
Dew Point: 44°   Wind: 7mph
Humidity: 74%   Direction: 360°N
Pressure: 30.16"   Gusts: NA
Location:  31.3168°N, 92.7338°W
Report Text: KAEX 201925Z 36006KT 10SM SCT017 11/07 A3016 RMK AO2 T01110067
Loading
Personal Weather Stations






























Interactive Weather Map New forecast layout! Learn more

10-Day Weather Forecast

Advertisements
Track Severe Weather on mobile